sensor_id;sensor_type;location;lat;lon;timestamp;P1;durP1;ratioP1;P2;durP2;ratioP2
20794;SDS011;28087;-33.874;151.240;2023-04-24T00:00:54;5.45;;;1.40;;
20794;SDS011;28087;-33.874;151.240;2023-04-24T00:03:29;4.53;;;1.00;;
20794;SDS011;28087;-33.874;151.240;2023-04-24T00:06:07;5.10;;;1.20;;
20794;SDS011;28087;-33.874;151.240;2023-04-24T00:08:42;7.13;;;1.30;;
20794;SDS011;28087;-33.874;151.240;2023-04-24T00:11:18;7.13;;;1.30;;
20794;SDS011;28087;-33.874;151.240;2023-04-24T00:13:53;6.00;;;1.23;;
20794;SDS011;28087;-33.874;151.240;2023-04-24T00:16:28;7.93;;;1.20;;
20794;SDS011;28087;-33.874;151.240;2023-04-24T00:19:03;7.75;;;1.20;;
20794;SDS011;28087;-33.874;151.240;2023-04-24T00:21:39;6.43;;;1.20;;
20794;SDS011;28087;-33.874;151.240;2023-04-24T00:24:13;5.45;;;1.50;;
20794;SDS011;28087;-33.874;151.240;2023-04-24T00:26:49;6.30;;;1.30;;
20794;SDS011;28087;-33.874;151.240;2023-04-24T00:29:24;4.82;;;1.20;;
20794;SDS011;28087;-33.874;151.240;2023-04-24T00:31:59;6.30;;;1.10;;
20794;SDS011;28087;-33.874;151.240;2023-04-24T00:34:34;6.05;;;1.15;;
20794;SDS011;28087;-33.874;151.240;2023-04-24T00:37:13;6.28;;;1.20;;
20794;SDS011;28087;-33.874;151.240;2023-04-24T00:39:48;4.82;;;1.00;;
20794;SDS011;28087;-33.874;151.240;2023-04-24T00:42:27;7.97;;;1.42;;
20794;SDS011;28087;-33.874;151.240;2023-04-24T00:45:01;5.65;;;1.10;;
20794;SDS011;28087;-33.874;151.240;2023-04-24T00:47:37;8.75;;;1.20;;
20794;SDS011;28087;-33.874;151.240;2023-04-24T00:50:12;5.53;;;1.33;;
20794;SDS011;28087;-33.874;151.240;2023-04-24T00:52:53;7.47;;;1.27;;
20794;SDS011;28087;-33.874;151.240;2023-04-24T00:55:30;5.80;;;1.10;;
20794;SDS011;28087;-33.874;151.240;2023-04-24T00:58:07;6.43;;;1.40;;
20794;SDS011;28087;-33.874;151.240;2023-04-24T01:00:41;6.50;;;1.50;;
20794;SDS011;28087;-33.874;151.240;2023-04-24T01:03:17;6.50;;;1.30;;
20794;SDS011;28087;-33.874;151.240;2023-04-24T01:05:52;4.35;;;1.17;;
20794;SDS011;28087;-33.874;151.240;2023-04-24T01:08:31;6.90;;;1.50;;
20794;SDS011;28087;-33.874;151.240;2023-04-24T01:11:05;8.02;;;1.38;;
20794;SDS011;28087;-33.874;151.240;2023-04-24T01:13:41;7.13;;;1.35;;
20794;SDS011;28087;-33.874;151.240;2023-04-24T01:16:16;6.30;;;1.50;;
20794;SDS011;28087;-33.874;151.240;2023-04-24T01:18:52;5.55;;;1.30;;
20794;SDS011;28087;-33.874;151.240;2023-04-24T01:21:26;6.50;;;1.33;;
20794;SDS011;28087;-33.874;151.240;2023-04-24T01:24:05;7.45;;;1.67;;
20794;SDS011;28087;-33.874;151.240;2023-04-24T01:26:42;5.65;;;1.52;;
20794;SDS011;28087;-33.874;151.240;2023-04-24T01:29:20;6.95;;;1.40;;
20794;SDS011;28087;-33.874;151.240;2023-04-24T01:31:55;6.05;;;1.58;;
20794;SDS011;28087;-33.874;151.240;2023-04-24T01:34:31;8.07;;;1.30;;
20794;SDS011;28087;-33.874;151.240;2023-04-24T01:37:06;5.93;;;1.30;;
20794;SDS011;28087;-33.874;151.240;2023-04-24T01:39:43;6.18;;;1.30;;
20794;SDS011;28087;-33.874;151.240;2023-04-24T01:42:19;5.57;;;1.08;;
20794;SDS011;28087;-33.874;151.240;2023-04-24T01:44:54;7.85;;;1.70;;
20794;SDS011;28087;-33.874;151.240;2023-04-24T01:47:31;9.55;;;1.95;;
20794;SDS011;28087;-33.874;151.240;2023-04-24T01:50:07;13.43;;;2.47;;
20794;SDS011;28087;-33.874;151.240;2023-04-24T01:52:41;11.15;;;2.40;;
20794;SDS011;28087;-33.874;151.240;2023-04-24T01:55:18;14.90;;;2.85;;
20794;SDS011;28087;-33.874;151.240;2023-04-24T01:57:52;9.65;;;2.30;;
20794;SDS011;28087;-33.874;151.240;2023-04-24T02:00:31;10.98;;;2.60;;
20794;SDS011;28087;-33.874;151.240;2023-04-24T02:03:05;11.45;;;2.55;;
20794;SDS011;28087;-33.874;151.240;2023-04-24T02:05:40;10.88;;;2.30;;
20794;SDS011;28087;-33.874;151.240;2023-04-24T02:08:17;13.00;;;2.50;;
20794;SDS011;28087;-33.874;151.240;2023-04-24T02:10:55;10.70;;;2.60;;
20794;SDS011;28087;-33.874;151.240;2023-04-24T02:13:30;10.63;;;2.50;;
20794;SDS011;28087;-33.874;151.240;2023-04-24T02:16:05;9.63;;;2.20;;
20794;SDS011;28087;-33.874;151.240;2023-04-24T02:18:40;12.70;;;2.40;;
20794;SDS011;28087;-33.874;151.240;2023-04-24T02:21:15;12.00;;;2.38;;
20794;SDS011;28087;-33.874;151.240;2023-04-24T02:23:53;12.02;;;2.35;;
20794;SDS011;28087;-33.874;151.240;2023-04-24T02:26:29;11.30;;;2.10;;
20794;SDS011;28087;-33.874;151.240;2023-04-24T02:29:03;10.15;;;2.40;;
20794;SDS011;28087;-33.874;151.240;2023-04-24T02:31:40;12.75;;;2.40;;
20794;SDS011;28087;-33.874;151.240;2023-04-24T02:34:16;13.75;;;2.55;;
20794;SDS011;28087;-33.874;151.240;2023-04-24T02:36:50;13.48;;;2.50;;
20794;SDS011;28087;-33.874;151.240;2023-04-24T02:39:25;10.55;;;2.20;;
20794;SDS011;28087;-33.874;151.240;2023-04-24T02:42:03;11.90;;;2.33;;
20794;SDS011;28087;-33.874;151.240;2023-04-24T02:44:38;11.38;;;2.70;;
20794;SDS011;28087;-33.874;151.240;2023-04-24T02:47:14;13.02;;;2.53;;
20794;SDS011;28087;-33.874;151.240;2023-04-24T02:49:50;10.13;;;2.10;;
20794;SDS011;28087;-33.874;151.240;2023-04-24T02:52:26;11.80;;;2.15;;
20794;SDS011;28087;-33.874;151.240;2023-04-24T02:55:00;10.63;;;2.13;;
20794;SDS011;28087;-33.874;151.240;2023-04-24T02:57:40;11.10;;;2.20;;
20794;SDS011;28087;-33.874;151.240;2023-04-24T03:00:14;10.10;;;1.80;;
20794;SDS011;28087;-33.874;151.240;2023-04-24T03:02:51;9.88;;;2.47;;
20794;SDS011;28087;-33.874;151.240;2023-04-24T03:05:25;10.38;;;2.17;;
20794;SDS011;28087;-33.874;151.240;2023-04-24T03:08:01;11.85;;;2.30;;
20794;SDS011;28087;-33.874;151.240;2023-04-24T03:10:36;11.00;;;2.38;;
20794;SDS011;28087;-33.874;151.240;2023-04-24T03:13:18;9.18;;;2.50;;
20794;SDS011;28087;-33.874;151.240;2023-04-24T03:15:52;14.35;;;2.65;;
20794;SDS011;28087;-33.874;151.240;2023-04-24T03:18:29;9.52;;;2.30;;
20794;SDS011;28087;-33.874;151.240;2023-04-24T03:21:06;13.85;;;2.55;;
20794;SDS011;28087;-33.874;151.240;2023-04-24T03:23:43;10.45;;;2.60;;
20794;SDS011;28087;-33.874;151.240;2023-04-24T03:26:17;13.52;;;2.85;;
20794;SDS011;28087;-33.874;151.240;2023-04-24T03:29:16;11.90;;;2.35;;
20794;SDS011;28087;-33.874;151.240;2023-04-24T03:31:51;11.60;;;2.50;;
20794;SDS011;28087;-33.874;151.240;2023-04-24T03:34:27;9.82;;;2.40;;
20794;SDS011;28087;-33.874;151.240;2023-04-24T03:37:02;13.52;;;2.65;;
20794;SDS011;28087;-33.874;151.240;2023-04-24T03:39:45;17.27;;;2.67;;
20794;SDS011;28087;-33.874;151.240;2023-04-24T03:42:24;10.18;;;2.17;;
20794;SDS011;28087;-33.874;151.240;2023-04-24T03:45:02;13.02;;;2.38;;
20794;SDS011;28087;-33.874;151.240;2023-04-24T03:47:40;12.82;;;2.80;;
20794;SDS011;28087;-33.874;151.240;2023-04-24T03:50:16;8.75;;;2.47;;
20794;SDS011;28087;-33.874;151.240;2023-04-24T03:52:51;13.93;;;2.55;;
20794;SDS011;28087;-33.874;151.240;2023-04-24T03:55:40;13.38;;;2.40;;
20794;SDS011;28087;-33.874;151.240;2023-04-24T03:58:15;12.13;;;2.70;;
20794;SDS011;28087;-33.874;151.240;2023-04-24T04:00:52;8.80;;;1.92;;
20794;SDS011;28087;-33.874;151.240;2023-04-24T04:04:03;11.20;;;2.13;;
20794;SDS011;28087;-33.874;151.240;2023-04-24T04:06:39;8.40;;;1.90;;
20794;SDS011;28087;-33.874;151.240;2023-04-24T04:09:15;12.07;;;2.90;;
20794;SDS011;28087;-33.874;151.240;2023-04-24T04:11:49;13.50;;;2.53;;
20794;SDS011;28087;-33.874;151.240;2023-04-24T04:14:24;11.45;;;2.60;;
20794;SDS011;28087;-33.874;151.240;2023-04-24T04:17:01;14.13;;;2.33;;
20794;SDS011;28087;-33.874;151.240;2023-04-24T04:19:36;12.35;;;2.70;;
20794;SDS011;28087;-33.874;151.240;2023-04-24T04:22:12;15.40;;;2.58;;
20794;SDS011;28087;-33.874;151.240;2023-04-24T04:24:50;10.95;;;2.60;;
20794;SDS011;28087;-33.874;151.240;2023-04-24T04:27:27;10.82;;;2.38;;
20794;SDS011;28087;-33.874;151.240;2023-04-24T04:30:08;15.02;;;2.78;;
20794;SDS011;28087;-33.874;151.240;2023-04-24T04:32:54;13.48;;;2.63;;
20794;SDS011;28087;-33.874;151.240;2023-04-24T04:35:29;14.43;;;3.05;;
20794;SDS011;28087;-33.874;151.240;2023-04-24T04:38:04;16.20;;;3.10;;
20794;SDS011;28087;-33.874;151.240;2023-04-24T04:40:50;12.88;;;2.70;;
20794;SDS011;28087;-33.874;151.240;2023-04-24T04:43:28;11.93;;;3.15;;
20794;SDS011;28087;-33.874;151.240;2023-04-24T04:46:04;14.48;;;3.50;;
20794;SDS011;28087;-33.874;151.240;2023-04-24T04:48:50;19.27;;;3.50;;
20794;SDS011;28087;-33.874;151.240;2023-04-24T04:51:26;18.02;;;3.60;;
20794;SDS011;28087;-33.874;151.240;2023-04-24T04:54:01;16.63;;;3.80;;
20794;SDS011;28087;-33.874;151.240;2023-04-24T04:56:36;15.20;;;3.10;;
20794;SDS011;28087;-33.874;151.240;2023-04-24T04:59:12;14.25;;;3.20;;
20794;SDS011;28087;-33.874;151.240;2023-04-24T05:01:48;15.95;;;3.65;;
20794;SDS011;28087;-33.874;151.240;2023-04-24T05:04:25;16.67;;;3.95;;
20794;SDS011;28087;-33.874;151.240;2023-04-24T05:07:00;19.85;;;4.07;;
20794;SDS011;28087;-33.874;151.240;2023-04-24T05:09:40;18.45;;;3.90;;
20794;SDS011;28087;-33.874;151.240;2023-04-24T05:12:15;15.57;;;3.53;;
20794;SDS011;28087;-33.874;151.240;2023-04-24T05:14:53;15.65;;;3.80;;
20794;SDS011;28087;-33.874;151.240;2023-04-24T05:17:27;16.98;;;3.75;;
20794;SDS011;28087;-33.874;151.240;2023-04-24T05:20:06;18.67;;;4.25;;
20794;SDS011;28087;-33.874;151.240;2023-04-24T05:22:41;19.33;;;4.13;;
20794;SDS011;28087;-33.874;151.240;2023-04-24T05:25:16;15.27;;;3.25;;
20794;SDS011;28087;-33.874;151.240;2023-04-24T05:27:56;18.45;;;3.83;;
20794;SDS011;28087;-33.874;151.240;2023-04-24T05:30:34;19.70;;;3.83;;
20794;SDS011;28087;-33.874;151.240;2023-04-24T05:33:09;19.95;;;4.18;;
20794;SDS011;28087;-33.874;151.240;2023-04-24T05:35:47;22.42;;;3.65;;
20794;SDS011;28087;-33.874;151.240;2023-04-24T05:38:23;22.80;;;3.50;;
20794;SDS011;28087;-33.874;151.240;2023-04-24T05:40:59;17.00;;;3.50;;
20794;SDS011;28087;-33.874;151.240;2023-04-24T05:43:33;17.80;;;3.45;;
20794;SDS011;28087;-33.874;151.240;2023-04-24T05:46:08;18.13;;;4.05;;
20794;SDS011;28087;-33.874;151.240;2023-04-24T05:48:42;15.98;;;3.38;;
20794;SDS011;28087;-33.874;151.240;2023-04-24T05:51:20;18.20;;;3.47;;
20794;SDS011;28087;-33.874;151.240;2023-04-24T05:53:55;22.63;;;3.50;;
20794;SDS011;28087;-33.874;151.240;2023-04-24T05:56:32;24.58;;;4.00;;
20794;SDS011;28087;-33.874;151.240;2023-04-24T05:59:09;17.90;;;3.70;;
20794;SDS011;28087;-33.874;151.240;2023-04-24T06:01:45;40.90;;;5.03;;
20794;SDS011;28087;-33.874;151.240;2023-04-24T06:04:21;21.23;;;4.00;;
20794;SDS011;28087;-33.874;151.240;2023-04-24T06:07:01;20.42;;;3.70;;
20794;SDS011;28087;-33.874;151.240;2023-04-24T06:09:36;15.73;;;3.55;;
20794;SDS011;28087;-33.874;151.240;2023-04-24T06:12:14;18.98;;;3.53;;
20794;SDS011;28087;-33.874;151.240;2023-04-24T06:14:57;16.63;;;3.47;;
20794;SDS011;28087;-33.874;151.240;2023-04-24T06:17:49;19.30;;;3.40;;
20794;SDS011;28087;-33.874;151.240;2023-04-24T06:20:25;61.60;;;5.88;;
20794;SDS011;28087;-33.874;151.240;2023-04-24T06:23:02;16.80;;;3.38;;
20794;SDS011;28087;-33.874;151.240;2023-04-24T06:25:38;19.77;;;3.80;;
20794;SDS011;28087;-33.874;151.240;2023-04-24T06:28:12;15.32;;;3.45;;
20794;SDS011;28087;-33.874;151.240;2023-04-24T06:30:47;17.52;;;3.67;;
20794;SDS011;28087;-33.874;151.240;2023-04-24T06:33:22;20.42;;;3.75;;
20794;SDS011;28087;-33.874;151.240;2023-04-24T06:35:57;18.77;;;3.75;;
20794;SDS011;28087;-33.874;151.240;2023-04-24T06:38:33;16.45;;;3.58;;
20794;SDS011;28087;-33.874;151.240;2023-04-24T06:41:09;17.88;;;3.42;;
20794;SDS011;28087;-33.874;151.240;2023-04-24T06:43:45;18.80;;;3.38;;
20794;SDS011;28087;-33.874;151.240;2023-04-24T06:46:19;18.30;;;3.17;;
20794;SDS011;28087;-33.874;151.240;2023-04-24T06:48:54;16.13;;;3.50;;
20794;SDS011;28087;-33.874;151.240;2023-04-24T06:51:29;16.08;;;3.22;;
20794;SDS011;28087;-33.874;151.240;2023-04-24T06:54:07;16.00;;;3.65;;
20794;SDS011;28087;-33.874;151.240;2023-04-24T06:56:42;15.20;;;3.67;;
20794;SDS011;28087;-33.874;151.240;2023-04-24T06:59:18;12.90;;;3.20;;
20794;SDS011;28087;-33.874;151.240;2023-04-24T07:01:53;16.70;;;3.50;;
20794;SDS011;28087;-33.874;151.240;2023-04-24T07:04:30;32.22;;;4.78;;
20794;SDS011;28087;-33.874;151.240;2023-04-24T07:07:04;18.95;;;4.05;;
20794;SDS011;28087;-33.874;151.240;2023-04-24T07:09:42;22.15;;;3.92;;
20794;SDS011;28087;-33.874;151.240;2023-04-24T07:12:17;19.40;;;4.10;;
20794;SDS011;28087;-33.874;151.240;2023-04-24T07:14:52;14.57;;;2.97;;
20794;SDS011;28087;-33.874;151.240;2023-04-24T07:17:27;16.73;;;3.47;;
20794;SDS011;28087;-33.874;151.240;2023-04-24T07:20:02;15.57;;;2.85;;
20794;SDS011;28087;-33.874;151.240;2023-04-24T07:22:38;15.77;;;3.03;;
20794;SDS011;28087;-33.874;151.240;2023-04-24T07:25:16;13.43;;;3.25;;
20794;SDS011;28087;-33.874;151.240;2023-04-24T07:27:51;16.27;;;3.20;;
20794;SDS011;28087;-33.874;151.240;2023-04-24T07:30:25;13.50;;;2.65;;
20794;SDS011;28087;-33.874;151.240;2023-04-24T07:33:00;14.68;;;2.83;;
20794;SDS011;28087;-33.874;151.240;2023-04-24T07:35:35;10.85;;;2.72;;
20794;SDS011;28087;-33.874;151.240;2023-04-24T07:38:10;13.60;;;2.83;;
20794;SDS011;28087;-33.874;151.240;2023-04-24T07:40:46;18.10;;;3.20;;
20794;SDS011;28087;-33.874;151.240;2023-04-24T07:43:22;13.70;;;3.38;;
20794;SDS011;28087;-33.874;151.240;2023-04-24T07:46:02;16.55;;;3.00;;
20794;SDS011;28087;-33.874;151.240;2023-04-24T07:48:37;14.75;;;2.63;;
20794;SDS011;28087;-33.874;151.240;2023-04-24T07:51:12;15.63;;;2.72;;
20794;SDS011;28087;-33.874;151.240;2023-04-24T07:53:46;11.80;;;2.50;;
20794;SDS011;28087;-33.874;151.240;2023-04-24T07:56:24;10.05;;;2.20;;
20794;SDS011;28087;-33.874;151.240;2023-04-24T07:59:02;12.13;;;2.65;;
20794;SDS011;28087;-33.874;151.240;2023-04-24T08:01:36;11.07;;;2.40;;
20794;SDS011;28087;-33.874;151.240;2023-04-24T08:04:11;11.23;;;2.30;;
20794;SDS011;28087;-33.874;151.240;2023-04-24T08:06:49;14.68;;;2.85;;
20794;SDS011;28087;-33.874;151.240;2023-04-24T08:09:24;12.30;;;2.70;;
20794;SDS011;28087;-33.874;151.240;2023-04-24T08:12:00;14.82;;;2.58;;
20794;SDS011;28087;-33.874;151.240;2023-04-24T08:14:36;13.35;;;3.15;;
20794;SDS011;28087;-33.874;151.240;2023-04-24T08:17:12;11.20;;;2.55;;
20794;SDS011;28087;-33.874;151.240;2023-04-24T08:19:49;15.18;;;2.90;;
20794;SDS011;28087;-33.874;151.240;2023-04-24T08:22:30;12.02;;;3.08;;
20794;SDS011;28087;-33.874;151.240;2023-04-24T08:25:06;12.73;;;2.80;;
20794;SDS011;28087;-33.874;151.240;2023-04-24T08:27:43;12.27;;;2.50;;
20794;SDS011;28087;-33.874;151.240;2023-04-24T08:30:18;14.98;;;2.80;;
20794;SDS011;28087;-33.874;151.240;2023-04-24T08:32:54;14.80;;;2.97;;
20794;SDS011;28087;-33.874;151.240;2023-04-24T08:35:30;17.10;;;3.35;;
20794;SDS011;28087;-33.874;151.240;2023-04-24T08:38:06;16.58;;;3.22;;
20794;SDS011;28087;-33.874;151.240;2023-04-24T08:40:40;13.30;;;3.20;;
20794;SDS011;28087;-33.874;151.240;2023-04-24T08:43:18;16.67;;;3.17;;
20794;SDS011;28087;-33.874;151.240;2023-04-24T08:45:56;19.70;;;6.25;;
20794;SDS011;28087;-33.874;151.240;2023-04-24T08:48:36;21.70;;;9.15;;
20794;SDS011;28087;-33.874;151.240;2023-04-24T08:51:11;21.65;;;4.90;;
20794;SDS011;28087;-33.874;151.240;2023-04-24T08:53:48;17.63;;;3.50;;
20794;SDS011;28087;-33.874;151.240;2023-04-24T08:56:24;24.27;;;3.70;;
20794;SDS011;28087;-33.874;151.240;2023-04-24T08:59:01;17.40;;;3.97;;
20794;SDS011;28087;-33.874;151.240;2023-04-24T09:01:37;19.52;;;3.80;;
20794;SDS011;28087;-33.874;151.240;2023-04-24T09:04:15;15.73;;;3.90;;
20794;SDS011;28087;-33.874;151.240;2023-04-24T09:06:51;15.90;;;4.20;;
20794;SDS011;28087;-33.874;151.240;2023-04-24T09:09:26;17.13;;;4.05;;
20794;SDS011;28087;-33.874;151.240;2023-04-24T09:12:01;19.48;;;4.45;;
20794;SDS011;28087;-33.874;151.240;2023-04-24T09:14:38;19.08;;;4.40;;
20794;SDS011;28087;-33.874;151.240;2023-04-24T09:17:17;21.63;;;4.60;;
20794;SDS011;28087;-33.874;151.240;2023-04-24T09:19:54;21.00;;;4.10;;
20794;SDS011;28087;-33.874;151.240;2023-04-24T09:22:29;17.88;;;4.00;;
20794;SDS011;28087;-33.874;151.240;2023-04-24T09:25:04;17.95;;;4.18;;
20794;SDS011;28087;-33.874;151.240;2023-04-24T09:27:41;17.38;;;3.90;;
20794;SDS011;28087;-33.874;151.240;2023-04-24T09:30:21;19.70;;;4.05;;
20794;SDS011;28087;-33.874;151.240;2023-04-24T09:33:12;22.55;;;4.10;;
20794;SDS011;28087;-33.874;151.240;2023-04-24T09:35:48;20.15;;;4.35;;
20794;SDS011;28087;-33.874;151.240;2023-04-24T09:38:33;21.27;;;4.47;;
20794;SDS011;28087;-33.874;151.240;2023-04-24T09:41:15;18.35;;;3.97;;
20794;SDS011;28087;-33.874;151.240;2023-04-24T09:43:50;22.10;;;4.15;;
20794;SDS011;28087;-33.874;151.240;2023-04-24T09:46:31;18.75;;;4.45;;
20794;SDS011;28087;-33.874;151.240;2023-04-24T09:49:13;18.13;;;4.25;;
20794;SDS011;28087;-33.874;151.240;2023-04-24T09:51:48;22.63;;;4.22;;
20794;SDS011;28087;-33.874;151.240;2023-04-24T09:54:23;20.30;;;4.10;;
20794;SDS011;28087;-33.874;151.240;2023-04-24T09:56:57;20.92;;;4.47;;
20794;SDS011;28087;-33.874;151.240;2023-04-24T09:59:33;24.30;;;4.82;;
20794;SDS011;28087;-33.874;151.240;2023-04-24T10:02:18;22.00;;;4.22;;
20794;SDS011;28087;-33.874;151.240;2023-04-24T10:04:57;20.02;;;4.07;;
20794;SDS011;28087;-33.874;151.240;2023-04-24T10:07:33;20.42;;;4.10;;
20794;SDS011;28087;-33.874;151.240;2023-04-24T10:10:07;17.23;;;3.53;;
20794;SDS011;28087;-33.874;151.240;2023-04-24T10:12:43;21.00;;;3.50;;
20794;SDS011;28087;-33.874;151.240;2023-04-24T10:15:18;23.17;;;4.22;;
20794;SDS011;28087;-33.874;151.240;2023-04-24T10:17:56;22.90;;;4.25;;
20794;SDS011;28087;-33.874;151.240;2023-04-24T10:20:33;18.50;;;3.70;;
20794;SDS011;28087;-33.874;151.240;2023-04-24T10:23:08;19.45;;;4.05;;
20794;SDS011;28087;-33.874;151.240;2023-04-24T10:25:44;17.30;;;3.78;;
20794;SDS011;28087;-33.874;151.240;2023-04-24T10:28:19;21.85;;;4.38;;
20794;SDS011;28087;-33.874;151.240;2023-04-24T10:30:55;21.20;;;4.30;;
20794;SDS011;28087;-33.874;151.240;2023-04-24T10:33:33;20.08;;;3.90;;
20794;SDS011;28087;-33.874;151.240;2023-04-24T10:36:08;23.52;;;4.18;;
20794;SDS011;28087;-33.874;151.240;2023-04-24T10:38:44;21.33;;;4.47;;
20794;SDS011;28087;-33.874;151.240;2023-04-24T10:41:21;22.25;;;4.13;;
20794;SDS011;28087;-33.874;151.240;2023-04-24T10:44:05;21.42;;;4.40;;
20794;SDS011;28087;-33.874;151.240;2023-04-24T10:46:43;20.48;;;4.53;;
20794;SDS011;28087;-33.874;151.240;2023-04-24T10:49:20;21.52;;;4.13;;
20794;SDS011;28087;-33.874;151.240;2023-04-24T10:52:03;18.27;;;3.30;;
20794;SDS011;28087;-33.874;151.240;2023-04-24T10:54:41;19.98;;;4.32;;
20794;SDS011;28087;-33.874;151.240;2023-04-24T10:57:26;20.85;;;3.75;;
20794;SDS011;28087;-33.874;151.240;2023-04-24T11:00:13;17.20;;;3.50;;
20794;SDS011;28087;-33.874;151.240;2023-04-24T11:02:50;21.60;;;3.50;;
20794;SDS011;28087;-33.874;151.240;2023-04-24T11:08:26;19.67;;;3.67;;
20794;SDS011;28087;-33.874;151.240;2023-04-24T11:11:02;19.73;;;3.85;;
20794;SDS011;28087;-33.874;151.240;2023-04-24T11:16:33;20.27;;;3.90;;
20794;SDS011;28087;-33.874;151.240;2023-04-24T11:19:09;18.90;;;4.18;;
20794;SDS011;28087;-33.874;151.240;2023-04-24T11:21:46;21.45;;;4.20;;
20794;SDS011;28087;-33.874;151.240;2023-04-24T11:24:37;16.25;;;3.53;;
20794;SDS011;28087;-33.874;151.240;2023-04-24T11:27:19;24.05;;;4.53;;
20794;SDS011;28087;-33.874;151.240;2023-04-24T11:30:01;21.15;;;3.90;;
20794;SDS011;28087;-33.874;151.240;2023-04-24T11:32:37;17.35;;;4.18;;
20794;SDS011;28087;-33.874;151.240;2023-04-24T11:35:14;18.40;;;3.40;;
20794;SDS011;28087;-33.874;151.240;2023-04-24T11:37:49;18.25;;;3.78;;
20794;SDS011;28087;-33.874;151.240;2023-04-24T11:40:46;21.02;;;3.95;;
20794;SDS011;28087;-33.874;151.240;2023-04-24T11:43:21;20.05;;;3.85;;
20794;SDS011;28087;-33.874;151.240;2023-04-24T11:45:59;19.85;;;4.00;;
20794;SDS011;28087;-33.874;151.240;2023-04-24T11:48:35;20.27;;;4.15;;
20794;SDS011;28087;-33.874;151.240;2023-04-24T11:51:11;19.10;;;3.83;;
20794;SDS011;28087;-33.874;151.240;2023-04-24T11:53:46;19.95;;;4.18;;
20794;SDS011;28087;-33.874;151.240;2023-04-24T11:56:34;19.75;;;3.78;;
20794;SDS011;28087;-33.874;151.240;2023-04-24T11:59:10;17.77;;;3.28;;
20794;SDS011;28087;-33.874;151.240;2023-04-24T12:01:45;21.17;;;4.00;;
20794;SDS011;28087;-33.874;151.240;2023-04-24T12:04:21;16.45;;;3.80;;
20794;SDS011;28087;-33.874;151.240;2023-04-24T12:06:59;22.13;;;4.03;;
20794;SDS011;28087;-33.874;151.240;2023-04-24T12:09:43;18.42;;;3.85;;
20794;SDS011;28087;-33.874;151.240;2023-04-24T12:12:24;20.42;;;4.25;;
20794;SDS011;28087;-33.874;151.240;2023-04-24T12:14:59;16.38;;;3.90;;
20794;SDS011;28087;-33.874;151.240;2023-04-24T12:17:34;17.23;;;4.10;;
20794;SDS011;28087;-33.874;151.240;2023-04-24T12:20:09;18.25;;;3.60;;
20794;SDS011;28087;-33.874;151.240;2023-04-24T12:22:44;18.02;;;3.53;;
20794;SDS011;28087;-33.874;151.240;2023-04-24T12:25:20;16.38;;;3.55;;
20794;SDS011;28087;-33.874;151.240;2023-04-24T12:28:09;19.48;;;4.20;;
20794;SDS011;28087;-33.874;151.240;2023-04-24T12:30:46;15.43;;;3.30;;
20794;SDS011;28087;-33.874;151.240;2023-04-24T12:33:22;19.70;;;4.07;;
20794;SDS011;28087;-33.874;151.240;2023-04-24T12:36:02;18.55;;;3.85;;
20794;SDS011;28087;-33.874;151.240;2023-04-24T12:38:37;17.70;;;3.75;;
20794;SDS011;28087;-33.874;151.240;2023-04-24T12:41:17;17.65;;;3.70;;
20794;SDS011;28087;-33.874;151.240;2023-04-24T12:43:54;21.13;;;3.85;;
20794;SDS011;28087;-33.874;151.240;2023-04-24T12:46:28;18.38;;;3.53;;
20794;SDS011;28087;-33.874;151.240;2023-04-24T12:49:03;16.33;;;3.50;;
20794;SDS011;28087;-33.874;151.240;2023-04-24T12:51:40;17.83;;;3.92;;
20794;SDS011;28087;-33.874;151.240;2023-04-24T12:54:15;19.77;;;3.67;;
20794;SDS011;28087;-33.874;151.240;2023-04-24T12:56:49;18.73;;;3.80;;
20794;SDS011;28087;-33.874;151.240;2023-04-24T12:59:27;17.02;;;3.78;;
20794;SDS011;28087;-33.874;151.240;2023-04-24T13:02:01;16.58;;;3.53;;
20794;SDS011;28087;-33.874;151.240;2023-04-24T13:04:36;18.75;;;3.72;;
20794;SDS011;28087;-33.874;151.240;2023-04-24T13:07:12;15.95;;;3.55;;
20794;SDS011;28087;-33.874;151.240;2023-04-24T13:09:50;19.70;;;3.70;;
20794;SDS011;28087;-33.874;151.240;2023-04-24T13:12:25;18.73;;;3.53;;
20794;SDS011;28087;-33.874;151.240;2023-04-24T13:15:02;18.80;;;3.53;;
20794;SDS011;28087;-33.874;151.240;2023-04-24T13:17:36;14.48;;;3.30;;
20794;SDS011;28087;-33.874;151.240;2023-04-24T13:20:11;18.60;;;3.53;;
20794;SDS011;28087;-33.874;151.240;2023-04-24T13:22:46;14.43;;;3.10;;
20794;SDS011;28087;-33.874;151.240;2023-04-24T13:25:22;15.70;;;3.55;;
20794;SDS011;28087;-33.874;151.240;2023-04-24T13:27:57;16.85;;;3.55;;
20794;SDS011;28087;-33.874;151.240;2023-04-24T13:30:34;14.63;;;3.53;;
20794;SDS011;28087;-33.874;151.240;2023-04-24T13:33:10;12.85;;;3.05;;
20794;SDS011;28087;-33.874;151.240;2023-04-24T13:35:44;15.40;;;3.22;;
20794;SDS011;28087;-33.874;151.240;2023-04-24T13:38:19;16.30;;;3.72;;
20794;SDS011;28087;-33.874;151.240;2023-04-24T13:40:54;17.50;;;3.60;;
20794;SDS011;28087;-33.874;151.240;2023-04-24T13:43:29;19.50;;;4.10;;
20794;SDS011;28087;-33.874;151.240;2023-04-24T13:46:06;14.85;;;3.58;;
20794;SDS011;28087;-33.874;151.240;2023-04-24T13:48:45;15.88;;;3.25;;
20794;SDS011;28087;-33.874;151.240;2023-04-24T13:51:23;16.80;;;3.50;;
20794;SDS011;28087;-33.874;151.240;2023-04-24T13:53:59;16.83;;;2.97;;
20794;SDS011;28087;-33.874;151.240;2023-04-24T13:56:33;14.65;;;3.22;;
20794;SDS011;28087;-33.874;151.240;2023-04-24T13:59:08;16.30;;;3.40;;
20794;SDS011;28087;-33.874;151.240;2023-04-24T14:01:45;16.25;;;3.42;;
20794;SDS011;28087;-33.874;151.240;2023-04-24T14:04:22;15.32;;;3.33;;
20794;SDS011;28087;-33.874;151.240;2023-04-24T14:06:57;14.85;;;3.08;;
20794;SDS011;28087;-33.874;151.240;2023-04-24T14:09:31;13.95;;;3.35;;
20794;SDS011;28087;-33.874;151.240;2023-04-24T14:12:09;12.57;;;3.40;;
20794;SDS011;28087;-33.874;151.240;2023-04-24T14:14:44;16.83;;;3.78;;
20794;SDS011;28087;-33.874;151.240;2023-04-24T14:17:23;15.88;;;4.00;;
20794;SDS011;28087;-33.874;151.240;2023-04-24T14:19:58;16.05;;;3.75;;
20794;SDS011;28087;-33.874;151.240;2023-04-24T14:22:34;14.48;;;3.85;;
20794;SDS011;28087;-33.874;151.240;2023-04-24T14:25:09;17.77;;;4.03;;
20794;SDS011;28087;-33.874;151.240;2023-04-24T14:27:44;16.17;;;4.30;;
20794;SDS011;28087;-33.874;151.240;2023-04-24T14:30:18;18.17;;;4.22;;
20794;SDS011;28087;-33.874;151.240;2023-04-24T14:32:56;19.52;;;4.55;;
20794;SDS011;28087;-33.874;151.240;2023-04-24T14:35:31;14.43;;;3.78;;
20794;SDS011;28087;-33.874;151.240;2023-04-24T14:38:06;14.80;;;3.97;;
20794;SDS011;28087;-33.874;151.240;2023-04-24T14:40:41;14.95;;;3.97;;
20794;SDS011;28087;-33.874;151.240;2023-04-24T14:43:19;16.40;;;4.35;;
20794;SDS011;28087;-33.874;151.240;2023-04-24T14:45:54;15.20;;;4.00;;
20794;SDS011;28087;-33.874;151.240;2023-04-24T14:48:31;14.75;;;3.85;;
20794;SDS011;28087;-33.874;151.240;2023-04-24T14:51:06;13.65;;;3.90;;
20794;SDS011;28087;-33.874;151.240;2023-04-24T14:53:40;15.40;;;4.38;;
20794;SDS011;28087;-33.874;151.240;2023-04-24T14:56:17;14.93;;;3.75;;
20794;SDS011;28087;-33.874;151.240;2023-04-24T14:58:51;14.13;;;4.20;;